Terminal Aerodrome Forecast
Issued by NWS Duluth, MN

Home | Current Version | Previous Version | Text Only | Print | Product List | Glossary On
Versions: 1 2 3 4 5 6 7 8 9 10 11 12 13 14 15 16 17 18 19 20 21 22 23 24 25 26 27 28 29 30 31 32
000
FTUS43 KDLH 072327
TAFINL
TAF
KINL 072327Z 0800/0824 VRB04KT P6SM SKC
     FM080400 24004KT P6SM SCT200
     FM081400 24009G14KT 6SM HZ FEW040 BKN150
     FM081900 21007KT P6SM VCTS SCT050CB BKN120=

USA.gov is the U.S. government's official web portal to all federal, state and local government web resources and services.